createdAt,value
2023-01-09T00:02:23.476Z,0.80
2023-01-09T00:04:51.438Z,0.80
2023-01-09T00:07:19.320Z,0.63
2023-01-09T00:09:47.206Z,0.70
2023-01-09T00:12:15.053Z,0.70
2023-01-09T00:14:44.435Z,0.60
2023-01-09T00:17:12.368Z,0.97
2023-01-09T00:19:40.318Z,0.80
2023-01-09T00:22:09.538Z,0.80
2023-01-09T00:24:37.567Z,0.80
2023-01-09T00:27:06.367Z,0.80
2023-01-09T00:29:34.256Z,0.70
2023-01-09T00:32:03.500Z,0.80
2023-01-09T00:34:31.374Z,0.70
2023-01-09T00:36:59.279Z,0.90
2023-01-09T00:39:27.155Z,0.80
2023-01-09T00:41:55.476Z,0.70
2023-01-09T00:44:24.548Z,0.90
2023-01-09T00:46:54.820Z,0.60
2023-01-09T00:49:24.075Z,0.60
2023-01-09T00:51:51.946Z,0.70
2023-01-09T00:54:19.997Z,0.70
2023-01-09T00:56:47.875Z,0.73
2023-01-09T00:59:15.719Z,0.80
2023-01-09T01:01:43.661Z,0.70
2023-01-09T01:04:29.034Z,0.50
2023-01-09T01:07:15.786Z,0.60
2023-01-09T01:09:43.680Z,0.70
2023-01-09T01:12:11.588Z,0.60
2023-01-09T01:14:39.849Z,0.60
2023-01-09T01:17:07.732Z,0.60
2023-01-09T01:19:35.592Z,0.77
2023-01-09T01:22:04.966Z,0.70
2023-01-09T01:24:32.851Z,0.57
2023-01-09T01:27:01.075Z,0.60
2023-01-09T01:29:28.978Z,0.60
2023-01-09T01:31:56.864Z,0.60
2023-01-09T01:34:24.813Z,0.60
2023-01-09T01:36:52.722Z,0.47
2023-01-09T01:39:21.957Z,0.63
2023-01-09T01:41:49.855Z,0.70
2023-01-09T01:44:55.250Z,0.60
2023-01-09T01:47:23.165Z,0.50
2023-01-09T01:49:51.059Z,0.50
2023-01-09T01:52:19.319Z,0.70
2023-01-09T01:54:48.524Z,0.50
2023-01-09T01:57:16.394Z,0.47
2023-01-09T01:59:50.053Z,0.60
2023-01-09T02:02:18.312Z,0.50
2023-01-09T02:04:46.426Z,0.60
2023-01-09T02:07:14.343Z,0.60
2023-01-09T02:09:44.419Z,0.50
2023-01-09T02:12:18.699Z,0.60
2023-01-09T02:14:46.687Z,0.40
2023-01-09T02:17:18.308Z,0.50
2023-01-09T02:20:07.448Z,0.50
2023-01-09T02:22:38.040Z,0.50
2023-01-09T02:25:34.430Z,0.50
2023-01-09T02:28:21.001Z,0.50
2023-01-09T02:30:50.340Z,0.67
2023-01-09T02:33:33.577Z,0.60
2023-01-09T02:36:13.458Z,0.50
2023-01-09T02:38:48.613Z,0.60
2023-01-09T02:41:21.374Z,0.60
2023-01-09T02:43:49.266Z,0.40
2023-01-09T02:46:20.904Z,0.70
2023-01-09T02:48:50.062Z,0.50
2023-01-09T02:51:22.570Z,0.40
2023-01-09T02:54:02.105Z,0.60
2023-01-09T02:56:48.291Z,0.60
2023-01-09T02:59:25.642Z,0.50
2023-01-09T03:02:08.954Z,0.63
2023-01-09T03:04:44.067Z,0.50
2023-01-09T03:07:16.630Z,0.57
2023-01-09T03:09:44.554Z,0.30
2023-01-09T03:12:16.452Z,0.53
2023-01-09T03:14:46.942Z,0.40
2023-01-09T03:17:19.499Z,0.40
2023-01-09T03:19:47.411Z,0.50
2023-01-09T03:22:15.267Z,0.57
2023-01-09T03:24:43.149Z,0.40
2023-01-09T03:27:11.032Z,0.40
2023-01-09T03:29:38.913Z,0.50
2023-01-09T03:32:07.304Z,0.50
2023-01-09T03:34:36.560Z,0.30
2023-01-09T03:37:05.164Z,0.53
2023-01-09T03:39:33.086Z,0.50
2023-01-09T03:42:01.015Z,0.50
2023-01-09T03:44:28.928Z,0.43
2023-01-09T03:46:56.820Z,0.30
2023-01-09T03:49:25.192Z,0.30
2023-01-09T03:51:54.393Z,0.60
2023-01-09T03:54:22.261Z,0.50
2023-01-09T03:56:50.238Z,0.50
2023-01-09T03:59:18.667Z,0.60
2023-01-09T04:01:46.625Z,0.30
2023-01-09T04:04:14.689Z,0.30
2023-01-09T04:06:42.615Z,0.40
2023-01-09T04:09:11.875Z,0.50
2023-01-09T04:11:39.742Z,0.60
2023-01-09T04:14:07.671Z,0.47
2023-01-09T04:16:35.655Z,0.20
2023-01-09T04:19:03.601Z,0.40
2023-01-09T04:21:31.512Z,0.30
2023-01-09T04:23:59.398Z,0.50
2023-01-09T04:26:28.669Z,0.50
2023-01-09T04:28:56.626Z,0.50
2023-01-09T04:31:24.530Z,0.57
2023-01-09T04:33:52.431Z,0.30
2023-01-09T04:36:20.334Z,0.40
2023-01-09T04:38:48.254Z,0.57
2023-01-09T04:41:36.132Z,0.30
2023-01-09T04:44:05.458Z,0.47
2023-01-09T04:46:33.361Z,0.43
2023-01-09T04:49:01.251Z,0.40
2023-01-09T04:51:29.136Z,0.43
2023-01-09T04:53:57.058Z,0.40
2023-01-09T04:56:24.976Z,0.37
2023-01-09T04:58:52.900Z,0.40
2023-01-09T05:01:22.295Z,0.40
2023-01-09T05:03:50.306Z,0.40
2023-01-09T05:06:18.265Z,0.40
2023-01-09T05:08:46.179Z,0.50
2023-01-09T05:11:14.083Z,0.47
2023-01-09T05:13:41.961Z,0.60
2023-01-09T05:16:10.328Z,0.50
2023-01-09T05:18:39.625Z,0.40
2023-01-09T05:21:07.532Z,0.40
2023-01-09T05:23:35.413Z,0.53
2023-01-09T05:26:04.147Z,0.50
2023-01-09T05:28:32.122Z,0.47
2023-01-09T05:30:59.978Z,0.40
2023-01-09T05:33:27.917Z,0.30
2023-01-09T05:35:57.178Z,0.50
2023-01-09T05:38:25.093Z,0.50
2023-01-09T05:40:53.092Z,0.40
2023-01-09T05:43:20.999Z,0.30
2023-01-09T05:45:48.956Z,0.40
2023-01-09T05:48:16.846Z,0.50
2023-01-09T05:50:44.819Z,0.43
2023-01-09T05:53:14.112Z,0.50
2023-01-09T05:55:42.055Z,0.53
2023-01-09T05:58:09.939Z,0.43
2023-01-09T06:00:37.805Z,0.33
2023-01-09T06:03:05.814Z,0.50
2023-01-09T06:05:33.855Z,0.30
2023-01-09T06:08:01.801Z,0.50
2023-01-09T06:10:31.037Z,0.60
2023-01-09T06:12:58.921Z,0.60
2023-01-09T06:15:26.846Z,0.43
2023-01-09T06:17:54.747Z,0.60
2023-01-09T06:20:22.634Z,0.60
2023-01-09T06:22:52.102Z,0.50
2023-01-09T06:25:20.105Z,0.57
2023-01-09T06:27:49.769Z,0.60
2023-01-09T06:30:18.236Z,0.53
2023-01-09T06:32:46.210Z,0.50
2023-01-09T06:35:14.131Z,0.50
2023-01-09T06:37:42.064Z,0.40
2023-01-09T06:40:11.503Z,0.50
2023-01-09T06:42:39.444Z,0.40
2023-01-09T06:45:09.610Z,0.57
2023-01-09T06:47:37.521Z,0.60
2023-01-09T06:50:05.929Z,0.50
2023-01-09T06:52:33.823Z,0.70
2023-01-09T06:55:01.723Z,0.50
2023-01-09T06:57:29.603Z,0.60
2023-01-09T06:59:57.838Z,0.40
2023-01-09T07:02:27.069Z,0.70
2023-01-09T07:04:56.895Z,0.60
2023-01-09T07:07:24.763Z,0.60
2023-01-09T07:09:52.620Z,0.50
2023-01-09T07:12:20.576Z,0.40
2023-01-09T07:14:48.492Z,0.57
2023-01-09T07:17:16.421Z,0.60
2023-01-09T07:19:45.705Z,0.50
2023-01-09T07:22:13.574Z,0.53
2023-01-09T07:24:41.466Z,0.50
2023-01-09T07:27:09.385Z,0.40
2023-01-09T07:29:37.324Z,0.67
2023-01-09T07:32:05.396Z,0.43
2023-01-09T07:34:33.367Z,0.50
2023-01-09T07:37:02.613Z,0.60
2023-01-09T07:39:30.500Z,0.50
2023-01-09T07:41:58.424Z,0.60
2023-01-09T07:44:27.155Z,0.60
2023-01-09T07:46:55.089Z,0.50
2023-01-09T07:49:23.382Z,0.40
2023-01-09T07:51:52.191Z,0.60
2023-01-09T07:54:21.414Z,0.50
2023-01-09T07:56:49.387Z,0.40
2023-01-09T07:59:17.300Z,0.50
2023-01-09T08:01:45.371Z,0.50
2023-01-09T08:04:14.395Z,0.43
2023-01-09T08:06:42.301Z,0.60
2023-01-09T08:09:10.519Z,0.40
2023-01-09T08:11:39.788Z,0.53
2023-01-09T08:14:07.746Z,0.63
2023-01-09T08:16:35.677Z,0.40
2023-01-09T08:19:03.591Z,0.40
2023-01-09T08:21:31.525Z,0.70
2023-01-09T08:23:59.501Z,0.50
2023-01-09T08:26:27.444Z,0.50
2023-01-09T08:28:56.714Z,0.80
2023-01-09T08:31:24.625Z,0.47
2023-01-09T08:33:52.564Z,0.40
2023-01-09T08:36:20.565Z,0.60
2023-01-09T08:38:48.552Z,0.40
2023-01-09T08:41:33.710Z,0.70
2023-01-09T08:44:20.606Z,0.53
2023-01-09T08:47:06.619Z,0.40
2023-01-09T08:49:34.704Z,0.50
2023-01-09T08:52:02.599Z,0.50
2023-01-09T08:54:31.322Z,0.57
2023-01-09T08:56:59.448Z,0.63
2023-01-09T08:59:28.724Z,0.80
2023-01-09T09:01:56.713Z,0.50
2023-01-09T09:04:24.679Z,0.50
2023-01-09T09:06:52.633Z,0.70
2023-01-09T09:09:20.589Z,0.60
2023-01-09T09:11:48.528Z,0.60
2023-01-09T09:14:34.134Z,0.63
2023-01-09T09:17:03.400Z,0.60
2023-01-09T09:19:31.310Z,0.87
2023-01-09T09:21:59.181Z,0.50
2023-01-09T09:24:27.163Z,0.47
2023-01-09T09:26:55.141Z,0.60
2023-01-09T09:29:23.074Z,0.50
2023-01-09T09:31:50.992Z,0.60
2023-01-09T09:34:20.235Z,0.80
2023-01-09T09:36:48.118Z,0.90
2023-01-09T09:39:16.002Z,0.93
2023-01-09T09:42:24.115Z,0.73
2023-01-09T09:45:02.841Z,0.70
2023-01-09T09:47:43.627Z,1.03
2023-01-09T09:50:33.604Z,0.83
2023-01-09T09:53:04.258Z,0.80
2023-01-09T09:55:33.507Z,0.77
2023-01-09T09:58:02.292Z,1.07
2023-01-09T10:00:30.279Z,0.70
2023-01-09T10:03:00.148Z,0.90
2023-01-09T10:05:30.742Z,0.90
2023-01-09T10:08:14.938Z,0.90
2023-01-09T10:10:45.385Z,0.77
2023-01-09T10:13:33.038Z,0.80
2023-01-09T10:16:04.062Z,0.80
2023-01-09T10:18:35.420Z,0.70
2023-01-09T10:21:06.531Z,1.17
2023-01-09T10:23:53.859Z,0.70
2023-01-09T10:26:23.751Z,0.63
2023-01-09T10:29:05.792Z,0.83
2023-01-09T10:31:36.572Z,0.80
2023-01-09T10:34:11.658Z,1.07
2023-01-09T10:37:11.750Z,0.77
2023-01-09T10:39:42.280Z,0.87
2023-01-09T10:42:14.079Z,0.70
2023-01-09T10:44:45.313Z,0.67
2023-01-09T10:47:17.037Z,0.87
2023-01-09T10:49:46.085Z,0.53
2023-01-09T10:52:18.078Z,0.80
2023-01-09T10:54:50.666Z,0.90
2023-01-09T10:57:25.840Z,0.80
2023-01-09T10:59:53.692Z,0.80
2023-01-09T11:02:26.093Z,0.80
2023-01-09T11:04:54.044Z,0.77
2023-01-09T11:07:24.355Z,0.80
2023-01-09T11:09:59.210Z,1.00
2023-01-09T11:12:27.820Z,0.80
2023-01-09T11:14:55.748Z,0.90
2023-01-09T11:17:26.404Z,0.90
2023-01-09T11:20:02.992Z,0.70
2023-01-09T11:22:42.506Z,0.90
2023-01-09T11:25:13.511Z,0.90
2023-01-09T11:27:41.427Z,0.93
2023-01-09T11:30:22.412Z,0.90
2023-01-09T11:32:50.473Z,0.80
2023-01-09T11:35:20.876Z,0.83
2023-01-09T11:37:51.590Z,0.97
2023-01-09T11:40:20.449Z,0.70
2023-01-09T11:43:15.152Z,0.93
2023-01-09T11:46:00.245Z,0.80
2023-01-09T11:48:39.920Z,0.90
2023-01-09T11:51:18.385Z,0.80
2023-01-09T11:54:00.943Z,1.00
2023-01-09T11:56:28.883Z,0.90
2023-01-09T11:58:56.771Z,1.00
2023-01-09T12:01:50.744Z,0.97
2023-01-09T12:04:23.435Z,1.13
2023-01-09T12:06:58.790Z,1.00
2023-01-09T12:09:29.781Z,1.00
2023-01-09T12:12:01.360Z,1.20
2023-01-09T12:14:35.626Z,1.00
2023-01-09T12:17:36.289Z,0.80
2023-01-09T12:20:30.952Z,0.80
2023-01-09T12:23:05.125Z,0.90
2023-01-09T12:25:39.844Z,0.83
2023-01-09T12:28:16.545Z,1.00
2023-01-09T12:30:50.864Z,1.10
2023-01-09T12:33:26.665Z,0.90
2023-01-09T12:35:58.853Z,1.10
2023-01-09T12:38:36.448Z,0.70
2023-01-09T12:41:12.957Z,0.90
2023-01-09T12:43:43.985Z,1.00
2023-01-09T12:46:16.064Z,1.20
2023-01-09T12:48:51.433Z,0.90
2023-01-09T12:51:32.160Z,0.87
2023-01-09T12:54:02.706Z,0.93
2023-01-09T12:56:33.418Z,1.10
2023-01-09T12:59:02.774Z,1.10
2023-01-09T13:01:32.211Z,0.97
2023-01-09T13:04:10.466Z,0.80
2023-01-09T13:06:38.584Z,1.10
2023-01-09T13:09:13.606Z,1.10
2023-01-09T13:11:46.453Z,1.37
2023-01-09T13:14:15.911Z,1.50
2023-01-09T13:16:45.714Z,1.87
2023-01-09T13:19:15.685Z,2.10
2023-01-09T13:21:43.611Z,2.40
2023-01-09T13:24:15.179Z,2.87
2023-01-09T13:26:46.274Z,2.33
2023-01-09T13:29:16.362Z,2.77
2023-01-09T13:31:57.861Z,2.83
2023-01-09T13:34:26.536Z,2.83
2023-01-09T13:36:55.375Z,2.80
2023-01-09T13:39:25.439Z,3.27
2023-01-09T13:42:15.262Z,3.57
2023-01-09T13:44:43.151Z,2.77
2023-01-09T13:47:17.660Z,3.40
2023-01-09T13:50:02.731Z,3.00
2023-01-09T13:52:32.652Z,3.20
2023-01-09T13:55:02.582Z,3.00
2023-01-09T13:57:34.663Z,2.80
2023-01-09T14:00:39.898Z,2.93
2023-01-09T14:03:19.546Z,3.30
2023-01-09T14:06:13.641Z,3.10
2023-01-09T14:08:42.718Z,3.07
2023-01-09T14:11:10.651Z,2.60
2023-01-09T14:13:41.975Z,3.20
2023-01-09T14:16:15.973Z,2.80
2023-01-09T14:18:48.604Z,3.00
2023-01-09T14:21:16.488Z,3.00
2023-01-09T14:23:53.423Z,2.70
2023-01-09T14:26:22.893Z,2.80
2023-01-09T14:28:52.187Z,3.07
2023-01-09T14:31:37.969Z,3.17
2023-01-09T14:34:31.086Z,2.83
2023-01-09T14:37:00.531Z,3.00
2023-01-09T14:39:28.617Z,2.80
2023-01-09T14:42:05.735Z,3.40
2023-01-09T14:44:41.306Z,3.17
2023-01-09T14:47:14.345Z,3.13
2023-01-09T14:49:42.911Z,3.30
2023-01-09T14:52:14.169Z,3.23
2023-01-09T14:54:43.021Z,3.00
2023-01-09T14:57:24.688Z,3.60
2023-01-09T15:00:01.380Z,3.00
2023-01-09T15:02:30.097Z,3.00
2023-01-09T15:04:59.094Z,2.90
2023-01-09T15:07:30.941Z,3.43
2023-01-09T15:10:01.209Z,2.77
2023-01-09T15:12:29.112Z,3.20
2023-01-09T15:14:57.857Z,3.20
2023-01-09T15:17:28.513Z,2.60
2023-01-09T15:19:56.443Z,2.90
2023-01-09T15:22:25.154Z,3.10
2023-01-09T15:24:53.069Z,2.83
2023-01-09T15:27:22.151Z,3.03
2023-01-09T15:29:50.074Z,2.87
2023-01-09T15:32:19.168Z,2.90
2023-01-09T15:34:48.492Z,2.90
2023-01-09T15:37:24.954Z,2.80
2023-01-09T15:39:53.098Z,3.00
2023-01-09T15:42:41.271Z,2.77
2023-01-09T15:45:14.931Z,3.27
2023-01-09T15:47:42.871Z,3.00
2023-01-09T15:50:14.218Z,3.03
2023-01-09T15:52:42.121Z,2.87
2023-01-09T15:55:22.047Z,2.77
2023-01-09T15:57:52.298Z,2.50
2023-01-09T16:00:39.348Z,2.40
2023-01-09T16:03:20.091Z,2.97
2023-01-09T16:05:53.839Z,2.40
2023-01-09T16:08:24.085Z,2.70
2023-01-09T16:10:52.945Z,2.63
2023-01-09T16:13:22.696Z,2.23
2023-01-09T16:15:50.672Z,2.70
2023-01-09T16:18:29.457Z,2.67
2023-01-09T16:21:23.993Z,2.47
2023-01-09T16:23:56.132Z,2.63
2023-01-09T16:26:25.289Z,2.37
2023-01-09T16:28:53.384Z,2.47
2023-01-09T16:31:24.549Z,2.70
2023-01-09T16:33:59.728Z,2.17
2023-01-09T16:36:29.365Z,2.30
2023-01-09T16:38:57.367Z,2.07
2023-01-09T16:41:42.997Z,2.40
2023-01-09T16:44:11.145Z,2.40
2023-01-09T16:46:40.302Z,2.30
2023-01-09T16:49:18.765Z,2.20
2023-01-09T16:51:48.573Z,2.20
2023-01-09T16:54:16.597Z,2.30
2023-01-09T16:56:44.959Z,2.47
2023-01-09T16:59:14.034Z,2.47
2023-01-09T17:01:43.371Z,2.20
2023-01-09T17:04:12.352Z,2.30
2023-01-09T17:06:40.772Z,2.40
2023-01-09T17:09:12.071Z,2.23
2023-01-09T17:11:40.007Z,2.10
2023-01-09T17:14:08.120Z,2.50
2023-01-09T17:16:36.848Z,2.30
2023-01-09T17:19:04.857Z,2.00
2023-01-09T17:21:32.827Z,2.20
2023-01-09T17:24:18.525Z,2.30
2023-01-09T17:27:06.443Z,2.10
2023-01-09T17:29:34.520Z,2.20
2023-01-09T17:32:02.582Z,2.07
2023-01-09T17:34:30.563Z,2.00
2023-01-09T17:36:58.509Z,1.93
2023-01-09T17:39:26.463Z,2.50
2023-01-09T17:41:57.529Z,2.00
2023-01-09T17:44:26.402Z,1.80
2023-01-09T17:46:54.362Z,2.00
2023-01-09T17:49:22.783Z,1.73
2023-01-09T17:51:50.820Z,1.90
2023-01-09T17:54:21.057Z,2.00
2023-01-09T17:56:50.818Z,2.10
2023-01-09T17:59:20.094Z,1.83
2023-01-09T18:01:48.168Z,1.93
2023-01-09T18:04:16.198Z,1.90
2023-01-09T18:06:44.217Z,1.80
2023-01-09T18:09:15.152Z,1.70
2023-01-09T18:11:43.890Z,1.87
2023-01-09T18:14:13.665Z,1.83
2023-01-09T18:16:44.147Z,1.83
2023-01-09T18:19:12.181Z,1.80
2023-01-09T18:21:40.118Z,2.20
2023-01-09T18:24:09.399Z,1.93
2023-01-09T18:26:37.344Z,1.80
2023-01-09T18:29:05.273Z,1.87
2023-01-09T18:31:33.389Z,1.80
2023-01-09T18:34:05.342Z,1.90
2023-01-09T18:36:33.754Z,1.70
2023-01-09T18:39:02.276Z,1.70
2023-01-09T18:41:30.293Z,1.70
2023-01-09T18:43:58.838Z,1.70
2023-01-09T18:46:30.735Z,1.77
2023-01-09T18:48:59.748Z,1.70
2023-01-09T18:51:29.181Z,1.73
2023-01-09T18:53:57.122Z,2.27
2023-01-09T18:56:25.629Z,1.80
2023-01-09T18:58:55.308Z,1.70
2023-01-09T19:01:23.363Z,1.80
2023-01-09T19:03:51.391Z,2.03
2023-01-09T19:06:19.312Z,1.63
2023-01-09T19:08:48.637Z,1.60
2023-01-09T19:11:16.610Z,1.60
2023-01-09T19:13:44.643Z,1.60
2023-01-09T19:16:12.681Z,1.80
2023-01-09T19:18:41.915Z,1.63
2023-01-09T19:21:10.489Z,1.53
2023-01-09T19:23:38.420Z,2.00
2023-01-09T19:26:08.923Z,1.60
2023-01-09T19:28:38.236Z,1.50
2023-01-09T19:31:06.301Z,1.50
2023-01-09T19:33:34.204Z,1.70
2023-01-09T19:36:02.206Z,1.87
2023-01-09T19:38:30.381Z,1.70
2023-01-09T19:41:09.005Z,1.60
2023-01-09T19:43:40.431Z,1.60
2023-01-09T19:46:09.073Z,2.00
2023-01-09T19:48:37.345Z,1.73
2023-01-09T19:51:06.194Z,1.80
2023-01-09T19:53:34.382Z,1.33
2023-01-09T19:56:11.755Z,1.70
2023-01-09T19:58:41.100Z,1.43
2023-01-09T20:01:10.195Z,1.50
2023-01-09T20:03:38.614Z,1.70
2023-01-09T20:06:07.584Z,1.60
2023-01-09T20:08:35.491Z,1.30
2023-01-09T20:11:05.176Z,1.73
2023-01-09T20:13:33.221Z,1.40
2023-01-09T20:16:03.620Z,1.50
2023-01-09T20:18:31.652Z,1.50
2023-01-09T20:20:59.549Z,1.40
2023-01-09T20:23:28.220Z,1.57
2023-01-09T20:25:57.413Z,1.60
2023-01-09T20:28:26.412Z,1.40
2023-01-09T20:30:54.518Z,1.50
2023-01-09T20:33:24.312Z,1.27
2023-01-09T20:35:52.316Z,1.50
2023-01-09T20:38:20.266Z,1.20
2023-01-09T20:40:48.207Z,1.50
2023-01-09T20:43:16.489Z,1.40
2023-01-09T20:45:44.409Z,1.20
2023-01-09T20:48:14.393Z,1.40
2023-01-09T20:50:43.719Z,1.13
2023-01-09T20:53:11.626Z,1.30
2023-01-09T20:55:39.529Z,1.50
2023-01-09T20:58:07.446Z,1.30
2023-01-09T21:00:35.356Z,1.60
2023-01-09T21:03:04.787Z,1.20
2023-01-09T21:05:32.699Z,1.40
2023-01-09T21:08:01.914Z,1.33
2023-01-09T21:10:29.864Z,1.40
2023-01-09T21:12:57.798Z,1.40
2023-01-09T21:15:26.583Z,1.30
2023-01-09T21:17:55.722Z,1.30
2023-01-09T21:20:23.659Z,1.50
2023-01-09T21:22:52.010Z,1.50
2023-01-09T21:25:21.363Z,1.30
2023-01-09T21:27:50.316Z,1.30
2023-01-09T21:30:18.341Z,1.20
2023-01-09T21:32:46.323Z,1.30
2023-01-09T21:35:14.252Z,1.23
2023-01-09T21:37:42.169Z,1.17
2023-01-09T21:40:14.088Z,1.00
2023-01-09T21:43:00.775Z,1.57
2023-01-09T21:45:46.433Z,1.03
2023-01-09T21:48:14.363Z,1.20
2023-01-09T21:50:42.298Z,1.30
2023-01-09T21:53:10.291Z,1.30
2023-01-09T21:55:38.211Z,1.20
2023-01-09T21:58:07.481Z,1.27
2023-01-09T22:00:35.520Z,1.10
2023-01-09T22:03:05.733Z,1.00
2023-01-09T22:05:33.660Z,1.20
2023-01-09T22:08:01.578Z,1.03
2023-01-09T22:10:29.479Z,1.10
2023-01-09T22:13:17.353Z,1.20
2023-01-09T22:15:48.204Z,1.27
2023-01-09T22:18:16.114Z,1.10
2023-01-09T22:20:43.999Z,1.00
2023-01-09T22:23:11.867Z,1.10
2023-01-09T22:25:39.834Z,1.00
2023-01-09T22:28:09.996Z,1.10
2023-01-09T22:30:40.235Z,1.07
2023-01-09T22:33:11.113Z,1.20
2023-01-09T22:35:39.103Z,1.10
2023-01-09T22:38:06.986Z,1.00
2023-01-09T22:40:34.947Z,1.00
2023-01-09T22:43:03.076Z,1.10
2023-01-09T22:45:31.043Z,1.20
2023-01-09T22:47:58.979Z,1.17
2023-01-09T22:50:28.244Z,0.90
2023-01-09T22:52:56.137Z,1.23
2023-01-09T22:55:24.156Z,1.10
2023-01-09T22:57:52.047Z,0.90
2023-01-09T23:00:20.339Z,1.00
2023-01-09T23:02:48.520Z,0.90
2023-01-09T23:05:16.795Z,1.00
2023-01-09T23:07:46.092Z,1.03
2023-01-09T23:10:14.026Z,0.80
2023-01-09T23:12:46.662Z,1.13
2023-01-09T23:15:14.559Z,0.87
2023-01-09T23:17:42.460Z,0.93
2023-01-09T23:20:11.902Z,1.00
2023-01-09T23:22:39.802Z,0.83
2023-01-09T23:25:14.166Z,0.87
2023-01-09T23:27:42.082Z,1.17
2023-01-09T23:30:11.220Z,0.97
2023-01-09T23:32:39.155Z,1.03
2023-01-09T23:35:07.458Z,0.97
2023-01-09T23:37:35.373Z,1.00
2023-01-09T23:40:03.266Z,0.97
2023-01-09T23:42:50.158Z,0.90
2023-01-09T23:45:18.475Z,0.90
2023-01-09T23:47:46.410Z,0.90
2023-01-09T23:50:14.267Z,0.90
2023-01-09T23:52:42.203Z,0.90
2023-01-09T23:55:11.107Z,0.77
2023-01-09T23:57:40.335Z,0.87
